Time;durP1;ratioP1;P1;durP2;ratioP2;P2;SDS_P1;SDS_P2;PMS_P1;PMS_P2;Temp;Humidity;BMP_temperature;BMP_pressure;BME280_temperature;BME280_humidity;BME280_pressure;Samples;Min_cycle;Max_cycle;Signal;HPM_P1;HPM_P2
2022/03/20 00:01:16;;;;;;;2.35;1.30;;;6.40;97.80;;;;;;5072806;28;20028;-79
2022/03/20 00:03:42;;;;;;;2.70;1.40;;;6.40;98.10;;;;;;5073994;28;20021;-79
2022/03/20 00:06:08;;;;;;;2.88;1.38;;;6.30;98.90;;;;;;5073642;28;20025;-80
2022/03/20 00:08:34;;;;;;;5.07;1.67;;;6.30;99.00;;;;;;5073041;28;20549;-79
2022/03/20 00:11:01;;;;;;;3.75;1.67;;;6.30;98.80;;;;;;5073971;28;20035;-79
2022/03/20 00:13:28;;;;;;;3.42;1.65;;;6.30;99.30;;;;;;5073378;28;20496;-79
2022/03/20 00:15:55;;;;;;;3.28;1.45;;;6.30;99.40;;;;;;5073075;28;20041;-80
2022/03/20 00:18:23;;;;;;;7.60;1.80;;;6.20;99.80;;;;;;5073565;28;20028;-80
2022/03/20 00:21:00;;;;;;;4.75;1.60;;;6.20;99.80;;;;;;5073161;28;20472;-80
2022/03/20 00:23:26;;;;;;;3.13;1.30;;;6.10;99.90;;;;;;5073383;28;20029;-80
2022/03/20 00:25:53;;;;;;;2.30;1.70;;;6.10;99.90;;;;;;5072933;28;20037;-79
2022/03/20 00:28:23;;;;;;;3.42;1.60;;;6.10;99.90;;;;;;5072596;28;20039;-80
2022/03/20 00:30:49;;;;;;;3.95;1.77;;;6.10;99.90;;;;;;5073934;28;20048;-78
2022/03/20 00:33:15;;;;;;;2.53;1.70;;;6.10;99.90;;;;;;5073524;28;20528;-80
2022/03/20 00:35:41;;;;;;;4.05;2.13;;;6.10;99.90;;;;;;5072999;28;20043;-79
2022/03/20 00:38:07;;;;;;;3.72;1.92;;;6.10;99.90;;;;;;5073140;28;20021;-79
2022/03/20 00:40:34;;;;;;;2.88;1.90;;;6.10;99.90;;;;;;5073239;28;20035;-80
2022/03/20 00:42:59;;;;;;;4.85;1.90;;;6.10;99.90;;;;;;5072226;28;20043;-80
2022/03/20 00:45:26;;;;;;;3.65;1.90;;;6.20;99.90;;;;;;5073156;28;20480;-80
2022/03/20 00:47:52;;;;;;;6.03;2.10;;;6.10;99.90;;;;;;5072915;28;20484;-79
2022/03/20 00:50:17;;;;;;;4.47;2.22;;;6.20;99.90;;;;;;5072284;28;20032;-78
2022/03/20 00:52:43;;;;;;;8.88;2.60;;;6.10;99.90;;;;;;5072995;28;20537;-80
2022/03/20 00:55:09;;;;;;;6.05;2.42;;;6.10;99.90;;;;;;5072462;28;20495;-79
2022/03/20 00:57:35;;;;;;;4.72;2.53;;;6.10;99.90;;;;;;5072082;28;20373;-79
2022/03/20 01:00:00;;;;;;;5.22;2.92;;;6.10;99.90;;;;;;5072773;28;20043;-79
2022/03/20 01:02:26;;;;;;;3.80;2.50;;;6.00;99.90;;;;;;5072515;28;20021;-79
2022/03/20 01:04:51;;;;;;;4.45;3.05;;;6.00;99.90;;;;;;5071491;28;20388;-78
2022/03/20 01:07:17;;;;;;;4.53;2.85;;;6.00;99.90;;;;;;5079233;28;20040;-79
2022/03/20 01:09:43;;;;;;;7.50;3.28;;;6.00;99.90;;;;;;5078165;28;20082;-79
2022/03/20 01:12:09;;;;;;;5.47;2.95;;;6.30;99.90;;;;;;5072053;28;20143;-79
2022/03/20 01:14:34;;;;;;;8.75;4.10;;;6.00;99.90;;;;;;5073679;28;20108;-78
2022/03/20 01:17:01;;;;;;;4.32;3.38;;;6.00;99.90;;;;;;5072640;28;20112;-79
2022/03/20 01:19:27;;;;;;;5.03;3.33;;;5.90;99.90;;;;;;5071924;28;20369;-79
2022/03/20 01:21:54;;;;;;;10.63;3.90;;;5.90;99.90;;;;;;5072657;28;20074;-79
2022/03/20 01:24:21;;;;;;;6.07;4.30;;;5.80;99.90;;;;;;5071679;28;20051;-79
2022/03/20 01:26:46;;;;;;;6.90;4.40;;;5.80;99.90;;;;;;5072281;28;20024;-78
2022/03/20 01:29:12;;;;;;;7.38;4.22;;;5.80;99.90;;;;;;5072197;28;20027;-79
2022/03/20 01:31:38;;;;;;;8.75;4.57;;;5.80;99.90;;;;;;5071704;28;20024;-78
2022/03/20 01:34:05;;;;;;;6.28;4.40;;;5.70;99.90;;;;;;5072200;28;20024;-79
2022/03/20 01:36:31;;;;;;;6.90;5.18;;;5.70;99.90;;;;;;5072226;28;20556;-78
2022/03/20 01:38:57;;;;;;;7.78;4.47;;;5.70;99.90;;;;;;5071438;28;20146;-78
2022/03/20 01:41:23;;;;;;;8.15;5.13;;;5.70;99.90;;;;;;5071751;28;20067;-79
2022/03/20 01:43:55;;;;;;;9.85;5.90;;;5.70;99.90;;;;;;5078458;28;20020;-79
2022/03/20 01:46:21;;;;;;;10.45;5.60;;;5.60;99.90;;;;;;5091368;28;20035;-79
2022/03/20 01:48:46;;;;;;;9.77;6.20;;;5.60;99.90;;;;;;5092122;28;20376;-80
2022/03/20 01:51:13;;;;;;;10.20;6.05;;;5.60;99.90;;;;;;5091901;28;20039;-79
2022/03/20 01:53:39;;;;;;;8.55;6.22;;;5.50;99.90;;;;;;5091701;28;20021;-79
2022/03/20 01:56:05;;;;;;;10.25;6.45;;;5.50;99.90;;;;;;5092230;28;20125;-79
2022/03/20 01:58:32;;;;;;;11.60;6.03;;;5.50;99.90;;;;;;5092098;28;20030;-79
2022/03/20 02:00:58;;;;;;;11.10;6.85;;;5.50;99.90;;;;;;5091772;28;20032;-79
2022/03/20 02:03:23;;;;;;;10.05;6.93;;;5.50;99.90;;;;;;5091997;28;20353;-79
2022/03/20 02:05:49;;;;;;;8.93;6.35;;;5.40;99.90;;;;;;5092126;28;20086;-80
2022/03/20 02:08:16;;;;;;;11.77;7.22;;;5.40;99.90;;;;;;5091140;28;20047;-79
2022/03/20 02:10:43;;;;;;;9.63;6.63;;;5.40;99.90;;;;;;5092122;28;20032;-79
2022/03/20 02:13:11;;;;;;;13.15;7.15;;;5.40;99.90;;;;;;5091996;28;20024;-78
2022/03/20 02:15:37;;;;;;;13.00;7.72;;;5.40;99.90;;;;;;5091165;28;20105;-78
2022/03/20 02:18:05;;;;;;;13.30;7.88;;;5.40;99.90;;;;;;5091973;28;20041;-79
2022/03/20 02:20:32;;;;;;;11.02;7.55;;;5.40;99.90;;;;;;5091660;28;20032;-79
2022/03/20 02:22:58;;;;;;;11.10;8.40;;;5.30;99.90;;;;;;5091508;28;20127;-79
2022/03/20 02:25:23;;;;;;;13.38;8.05;;;5.30;99.90;;;;;;5091625;28;20479;-80
2022/03/20 02:27:49;;;;;;;14.15;9.48;;;5.30;99.90;;;;;;5091360;28;20059;-79
2022/03/20 02:30:17;;;;;;;12.50;8.02;;;5.30;99.90;;;;;;5091661;28;20142;-79
2022/03/20 02:32:46;;;;;;;17.40;9.20;;;5.20;99.90;;;;;;5091988;28;20073;-80
2022/03/20 02:35:14;;;;;;;13.98;8.73;;;5.20;99.90;;;;;;5091118;28;20032;-79
2022/03/20 02:37:45;;;;;;;11.05;8.02;;;5.20;99.90;;;;;;5092260;28;20024;-80
2022/03/20 02:40:11;;;;;;;12.68;9.20;;;5.20;99.90;;;;;;5092476;28;20039;-80
2022/03/20 02:42:38;;;;;;;15.93;9.65;;;5.20;99.90;;;;;;5092560;28;20082;-79
2022/03/20 02:45:07;;;;;;;15.43;8.65;;;5.30;99.90;;;;;;5095615;28;20024;-80
2022/03/20 02:47:35;;;;;;;14.98;9.20;;;5.20;99.90;;;;;;5095445;28;20487;-80
2022/03/20 02:50:04;;;;;;;16.60;9.43;;;5.20;99.90;;;;;;5094612;28;20383;-79
2022/03/20 02:52:39;;;;;;;11.13;7.93;;;5.20;99.90;;;;;;5095122;28;20032;-79
2022/03/20 02:55:05;;;;;;;16.65;9.25;;;5.20;99.90;;;;;;5102807;28;20067;-79
2022/03/20 02:57:32;;;;;;;12.80;8.43;;;5.20;99.90;;;;;;5104240;28;20020;-78
2022/03/20 03:00:00;;;;;;;12.50;7.43;;;5.30;99.90;;;;;;5096984;28;20028;-80
2022/03/20 03:02:30;;;;;;;10.35;7.65;;;5.20;99.90;;;;;;5095068;28;20055;-78
2022/03/20 03:04:57;;;;;;;14.32;7.63;;;5.20;99.90;;;;;;5095359;28;20131;-78
2022/03/20 03:07:23;;;;;;;12.40;8.38;;;5.10;99.90;;;;;;5095304;28;20503;-78
2022/03/20 03:12:32;;;;;;;9.88;6.85;;;5.00;99.90;;;;;;5095210;28;20062;-80
2022/03/20 03:17:42;;;;;;;8.48;6.63;;;5.10;99.90;;;;;;5094862;28;20047;-80
2022/03/20 03:20:08;;;;;;;14.35;7.70;;;5.10;99.90;;;;;;5094741;28;20421;-79
2022/03/20 03:22:34;;;;;;;10.65;6.70;;;5.10;99.90;;;;;;5095075;28;20077;-79
2022/03/20 03:24:59;;;;;;;8.68;6.82;;;5.10;99.90;;;;;;5094534;28;20026;-79
2022/03/20 03:27:25;;;;;;;9.75;6.85;;;5.10;99.90;;;;;;5094743;28;20032;-79
2022/03/20 03:29:51;;;;;;;14.68;6.68;;;5.10;99.90;;;;;;5095287;28;20491;-79
2022/03/20 03:32:17;;;;;;;9.18;7.05;;;5.00;99.90;;;;;;5094244;28;20028;-79
2022/03/20 03:37:27;;;;;;;12.10;7.00;;;5.00;99.90;;;;;;5094674;28;20035;-79
2022/03/20 03:39:53;;;;;;;15.93;6.45;;;5.00;99.90;;;;;;5094015;28;20020;-79
2022/03/20 03:42:19;;;;;;;12.40;6.90;;;4.90;99.90;;;;;;5094498;28;20046;-80
2022/03/20 03:44:45;;;;;;;11.60;7.15;;;4.90;99.90;;;;;;5095126;28;20047;-79
2022/03/20 03:47:11;;;;;;;10.98;6.93;;;4.90;99.90;;;;;;5094010;28;20024;-79
2022/03/20 03:49:37;;;;;;;11.13;7.32;;;4.90;99.90;;;;;;5094675;28;20520;-78
2022/03/20 03:52:02;;;;;;;9.52;6.63;;;4.80;99.90;;;;;;5093920;28;20529;-79
2022/03/20 03:54:28;;;;;;;11.52;7.00;;;4.80;99.90;;;;;;5092658;28;20552;-78
2022/03/20 03:56:54;;;;;;;8.65;6.53;;;4.70;99.90;;;;;;5094425;28;20043;-80
2022/03/20 03:59:20;;;;;;;10.43;6.28;;;4.70;99.90;;;;;;5093355;28;20024;-78
2022/03/20 04:01:45;;;;;;;12.05;7.13;;;4.70;99.90;;;;;;5094235;28;20027;-79
2022/03/20 04:04:11;;;;;;;17.20;7.32;;;4.70;99.90;;;;;;5094771;28;20020;-80
2022/03/20 04:06:37;;;;;;;16.98;7.43;;;4.70;99.90;;;;;;5093947;28;20519;-79
2022/03/20 04:09:04;;;;;;;11.93;7.15;;;4.60;99.90;;;;;;5094958;28;20024;-79
2022/03/20 04:11:29;;;;;;;9.80;6.57;;;4.60;99.90;;;;;;5094001;28;20039;-79
2022/03/20 04:13:56;;;;;;;9.38;7.35;;;4.70;99.90;;;;;;5093397;28;20032;-79
2022/03/20 04:16:21;;;;;;;17.23;7.78;;;4.60;99.90;;;;;;5093618;28;20541;-80
2022/03/20 04:18:47;;;;;;;14.38;7.80;;;4.50;99.90;;;;;;5093787;28;20028;-80
2022/03/20 04:21:14;;;;;;;10.15;7.20;;;4.60;99.90;;;;;;5092971;28;20052;-78
2022/03/20 04:23:45;;;;;;;12.65;7.70;;;4.60;99.90;;;;;;5093744;28;20106;-79
2022/03/20 04:26:12;;;;;;;12.70;7.20;;;4.50;99.90;;;;;;5093769;28;20032;-78
2022/03/20 04:28:37;;;;;;;8.70;7.22;;;4.50;99.90;;;;;;5093274;28;20024;-79
2022/03/20 04:31:06;;;;;;;11.13;8.25;;;4.50;99.90;;;;;;5093649;28;20464;-79
2022/03/20 04:33:32;;;;;;;11.32;7.75;;;4.50;99.90;;;;;;5093504;28;20028;-80
2022/03/20 04:35:58;;;;;;;10.45;8.23;;;4.50;99.90;;;;;;5092817;28;20043;-79
2022/03/20 04:38:23;;;;;;;16.80;8.82;;;4.40;99.90;;;;;;5093304;28;20020;-79
2022/03/20 04:40:50;;;;;;;17.55;8.68;;;4.40;99.90;;;;;;5094016;28;20393;-79
2022/03/20 04:43:17;;;;;;;14.77;8.43;;;4.40;99.90;;;;;;5092508;28;20028;-78
2022/03/20 04:45:43;;;;;;;14.13;7.70;;;4.30;99.90;;;;;;5093095;28;20490;-78
2022/03/20 04:59:04;;;;;;;13.40;8.18;;;4.20;99.90;;;;;;5093254;28;20483;-79
2022/03/20 05:01:30;;;;;;;16.25;8.93;;;4.10;99.90;;;;;;5092755;28;20023;-78
2022/03/20 05:03:55;;;;;;;14.95;8.55;;;4.10;99.90;;;;;;5092674;28;20024;-80
2022/03/20 05:06:21;;;;;;;13.38;8.85;;;4.00;99.90;;;;;;5092586;28;20024;-80
2022/03/20 05:08:47;;;;;;;16.65;9.43;;;4.00;99.90;;;;;;5093199;28;20454;-80
2022/03/20 05:13:56;;;;;;;16.00;9.00;;;4.10;99.90;;;;;;5093084;28;20031;-80
2022/03/20 05:16:22;;;;;;;15.50;8.52;;;4.10;99.90;;;;;;5092729;28;20040;-78
2022/03/20 05:18:48;;;;;;;11.63;8.20;;;4.10;99.90;;;;;;5092631;28;20031;-79
2022/03/20 05:21:14;;;;;;;15.98;9.70;;;4.10;99.90;;;;;;5092899;28;20074;-79
2022/03/20 05:23:39;;;;;;;17.23;9.40;;;4.10;99.90;;;;;;5092231;28;20028;-80
2022/03/20 05:26:05;;;;;;;18.10;10.13;;;4.10;99.90;;;;;;5093032;28;20114;-80
2022/03/20 05:28:31;;;;;;;15.85;8.65;;;4.10;99.90;;;;;;5092562;28;20016;-80
2022/03/20 05:30:56;;;;;;;20.75;10.13;;;4.10;99.90;;;;;;5092506;28;20464;-81
2022/03/20 05:33:22;;;;;;;25.17;9.32;;;4.10;99.90;;;;;;5093057;28;20024;-81
2022/03/20 05:35:48;;;;;;;14.38;8.55;;;4.10;99.90;;;;;;5093183;28;20065;-79
2022/03/20 05:38:13;;;;;;;14.82;9.18;;;4.00;99.90;;;;;;5091904;28;20032;-78
2022/03/20 05:40:41;;;;;;;18.20;9.05;;;4.00;99.90;;;;;;5092427;28;20020;-79
2022/03/20 05:43:08;;;;;;;13.57;9.07;;;4.00;99.90;;;;;;5092885;28;20026;-82
2022/03/20 05:45:34;;;;;;;19.88;10.63;;;4.00;99.90;;;;;;5091863;28;20632;-79
2022/03/20 05:48:00;;;;;;;16.25;10.55;;;4.00;99.90;;;;;;5092322;28;20020;-79
2022/03/20 05:50:25;;;;;;;20.75;10.68;;;4.10;99.90;;;;;;5092225;28;20374;-79
2022/03/20 05:52:52;;;;;;;20.13;10.65;;;4.10;99.90;;;;;;5091827;28;20024;-78
2022/03/20 05:55:18;;;;;;;22.52;10.30;;;4.10;99.90;;;;;;5091971;28;20036;-78
2022/03/20 05:58:02;;;;;;;16.25;9.68;;;4.20;99.90;;;;;;5092441;28;20027;-80
2022/03/20 06:00:28;;;;;;;18.30;10.32;;;4.30;99.90;;;;;;5091621;28;20106;-79
2022/03/20 06:02:54;;;;;;;17.05;9.65;;;4.20;99.90;;;;;;5092560;28;20054;-79
2022/03/20 06:05:21;;;;;;;17.95;10.02;;;4.30;99.90;;;;;;5092172;28;20052;-80
2022/03/20 06:07:47;;;;;;;17.80;10.93;;;4.40;99.90;;;;;;5090958;28;20365;-79
2022/03/20 06:10:18;;;;;;;22.45;10.70;;;4.40;99.90;;;;;;5091895;28;20036;-79
2022/03/20 06:12:44;;;;;;;19.02;10.15;;;4.50;99.90;;;;;;5092003;28;20035;-80
2022/03/20 06:15:11;;;;;;;16.23;10.68;;;4.40;99.90;;;;;;5091983;28;20078;-80
2022/03/20 06:17:41;;;;;;;13.77;9.70;;;4.50;99.90;;;;;;5093666;28;20058;-80
2022/03/20 06:20:08;;;;;;;26.08;10.68;;;4.50;99.90;;;;;;5095516;28;20024;-79
2022/03/20 06:22:35;;;;;;;18.75;10.45;;;4.60;99.90;;;;;;5096290;28;20028;-79
2022/03/20 06:25:09;;;;;;;18.00;11.13;;;4.60;99.90;;;;;;5096451;28;20028;-80
2022/03/20 06:27:45;;;;;;;15.82;10.45;;;4.70;99.90;;;;;;5096149;28;20101;-80
2022/03/20 06:30:13;;;;;;;18.63;10.07;;;4.70;99.90;;;;;;5095909;28;20035;-80
2022/03/20 06:32:39;;;;;;;23.25;11.63;;;4.80;99.90;;;;;;5108309;28;20016;-81
2022/03/20 06:35:06;;;;;;;16.25;10.60;;;4.90;99.90;;;;;;5098304;28;20028;-79
2022/03/20 06:37:39;;;;;;;18.60;11.50;;;4.90;99.90;;;;;;5096560;28;20029;-79
2022/03/20 06:40:07;;;;;;;18.88;10.93;;;4.90;99.90;;;;;;5096930;28;20487;-80
2022/03/20 06:42:33;;;;;;;22.05;11.88;;;5.00;99.90;;;;;;5095990;28;20028;-81
2022/03/20 06:45:05;;;;;;;18.40;10.15;;;5.10;99.90;;;;;;5096917;28;20099;-81
2022/03/20 06:47:33;;;;;;;26.05;10.85;;;5.10;99.90;;;;;;5096341;28;20085;-80
2022/03/20 06:49:59;;;;;;;14.45;10.60;;;5.20;99.90;;;;;;5095878;28;20036;-78
2022/03/20 06:52:28;;;;;;;19.33;11.25;;;5.30;99.90;;;;;;5095879;28;20042;-80
2022/03/20 06:54:56;;;;;;;17.77;10.93;;;5.40;99.90;;;;;;5082380;28;20431;-80
2022/03/20 06:57:23;;;;;;;19.17;11.50;;;5.50;99.90;;;;;;5073944;28;20362;-79
2022/03/20 06:59:51;;;;;;;18.02;10.55;;;5.50;99.90;;;;;;5080924;28;20036;-79
2022/03/20 07:02:18;;;;;;;19.98;12.07;;;5.50;99.90;;;;;;5073023;28;20112;-79
2022/03/20 07:04:48;;;;;;;18.90;10.82;;;5.50;99.90;;;;;;5073821;28;20357;-80
2022/03/20 07:07:20;;;;;;;26.48;12.57;;;5.40;99.90;;;;;;5074140;28;20079;-79
2022/03/20 07:09:46;;;;;;;20.25;12.20;;;5.50;99.90;;;;;;5076055;28;20060;-81
2022/03/20 07:12:13;;;;;;;17.15;11.95;;;5.50;99.90;;;;;;5073484;28;20016;-80
2022/03/20 07:14:40;;;;;;;17.17;12.02;;;5.50;99.90;;;;;;5076041;28;20032;-79
2022/03/20 07:17:09;;;;;;;19.13;12.43;;;5.60;99.90;;;;;;5072998;28;20055;-79
2022/03/20 07:19:37;;;;;;;20.67;12.10;;;5.50;99.90;;;;;;5076499;28;20032;-80
2022/03/20 07:22:03;;;;;;;20.85;12.98;;;5.50;99.90;;;;;;5073380;28;20120;-79
2022/03/20 07:24:29;;;;;;;21.33;13.52;;;5.60;99.90;;;;;;5074385;28;20039;-79
2022/03/20 07:29:39;;;;;;;17.27;11.45;;;5.70;99.90;;;;;;5080802;28;20138;-79
2022/03/20 07:32:06;;;;;;;21.30;12.52;;;5.70;99.90;;;;;;5093987;28;20024;-80
2022/03/20 07:34:36;;;;;;;28.08;12.68;;;5.80;99.90;;;;;;5086615;28;20119;-78
2022/03/20 07:37:08;;;;;;;19.88;11.70;;;5.80;99.90;;;;;;5074147;28;20042;-78
2022/03/20 07:39:34;;;;;;;21.75;13.50;;;5.80;99.90;;;;;;5074656;28;20024;-80
2022/03/20 07:42:00;;;;;;;19.10;12.15;;;5.90;99.90;;;;;;5074190;28;20025;-79
2022/03/20 07:44:26;;;;;;;23.23;12.05;;;5.90;99.90;;;;;;5073157;28;20461;-78
2022/03/20 07:46:53;;;;;;;22.35;12.02;;;6.00;99.90;;;;;;5076645;28;20022;-80
2022/03/20 07:49:21;;;;;;;17.63;11.88;;;6.00;99.90;;;;;;5089228;28;20383;-79
2022/03/20 07:51:47;;;;;;;17.83;11.20;;;6.00;99.90;;;;;;5092247;28;20031;-78
2022/03/20 07:54:14;;;;;;;20.50;11.85;;;6.10;99.90;;;;;;5092463;28;20016;-79
2022/03/20 07:56:39;;;;;;;22.80;11.88;;;6.10;99.90;;;;;;5092739;28;20123;-79
2022/03/20 07:59:09;;;;;;;20.92;12.23;;;6.10;99.90;;;;;;5085847;28;20132;-79
2022/03/20 08:01:36;;;;;;;17.88;11.60;;;6.10;99.90;;;;;;5072491;28;20489;-79
2022/03/20 08:04:02;;;;;;;18.02;11.57;;;6.00;99.90;;;;;;5072217;28;20024;-78
2022/03/20 08:06:28;;;;;;;20.73;12.23;;;6.10;99.90;;;;;;5071180;28;20052;-78
2022/03/20 08:08:53;;;;;;;18.70;12.27;;;6.10;99.90;;;;;;5072618;28;20051;-80
2022/03/20 08:11:19;;;;;;;23.10;12.63;;;6.20;99.90;;;;;;5072583;28;20028;-79
2022/03/20 08:13:46;;;;;;;21.30;12.13;;;6.30;99.90;;;;;;5089285;28;20024;-81
2022/03/20 08:16:20;;;;;;;19.92;12.32;;;6.50;99.90;;;;;;5092818;28;20102;-83
2022/03/20 08:18:45;;;;;;;18.35;12.65;;;6.50;99.90;;;;;;5093319;28;20472;-76
2022/03/20 08:21:14;;;;;;;23.67;13.07;;;6.60;99.90;;;;;;5086164;28;20062;-77
2022/03/20 08:23:40;;;;;;;24.13;13.05;;;6.60;99.90;;;;;;5071392;28;20051;-76
2022/03/20 08:26:08;;;;;;;21.70;12.82;;;6.70;99.90;;;;;;5071755;28;20036;-75
2022/03/20 08:28:42;;;;;;;17.55;11.65;;;6.80;99.90;;;;;;5071452;28;20024;-74
2022/03/20 08:31:08;;;;;;;20.05;12.90;;;7.00;99.90;;;;;;5082677;28;20051;-74
2022/03/20 08:33:34;;;;;;;23.73;12.77;;;7.10;99.90;;;;;;5069594;28;20581;-76
2022/03/20 08:36:01;;;;;;;21.50;12.90;;;7.20;99.80;;;;;;5071690;28;20047;-76
2022/03/20 08:38:27;;;;;;;22.48;12.50;;;7.20;98.80;;;;;;5072440;28;20495;-75
2022/03/20 08:40:53;;;;;;;22.70;12.45;;;7.20;99.00;;;;;;5071684;28;20029;-75
2022/03/20 08:43:18;;;;;;;18.73;12.43;;;7.30;98.30;;;;;;5072294;28;20318;-75
2022/03/20 08:45:44;;;;;;;19.75;12.45;;;7.30;98.10;;;;;;5072687;28;20108;-75
2022/03/20 08:48:10;;;;;;;21.52;12.55;;;7.30;98.40;;;;;;5071242;28;20597;-76
2022/03/20 08:50:37;;;;;;;23.05;12.95;;;7.30;98.80;;;;;;5071824;28;20472;-74
2022/03/20 08:53:03;;;;;;;22.88;12.65;;;7.30;98.30;;;;;;5074879;28;20024;-76
2022/03/20 08:55:28;;;;;;;22.20;14.07;;;7.30;97.60;;;;;;5075456;28;20373;-76
2022/03/20 08:57:54;;;;;;;24.25;13.88;;;7.30;97.00;;;;;;5092020;28;20024;-76
2022/03/20 09:00:23;;;;;;;24.10;13.93;;;7.30;97.00;;;;;;5078084;28;20473;-76
2022/03/20 09:02:49;;;;;;;25.77;14.50;;;7.40;97.30;;;;;;5089153;28;20032;-76
2022/03/20 09:05:16;;;;;;;22.00;13.65;;;7.30;97.10;;;;;;5092717;28;20036;-75
2022/03/20 09:07:47;;;;;;;22.90;14.00;;;7.30;97.30;;;;;;5092535;28;20044;-81
2022/03/20 09:10:16;;;;;;;;;;;7.30;96.60;;;;;;5092003;28;20035;-78
2022/03/20 09:12:43;;;;;;;21.08;13.27;;;7.30;96.40;;;;;;5093061;28;19910;-78
2022/03/20 09:15:12;;;;;;;21.80;13.52;;;7.30;96.20;;;;;;5110734;28;20032;-77
2022/03/20 09:20:23;;;;;;;22.92;13.00;;;7.40;96.60;;;;;;5111351;28;20043;-81
2022/03/20 09:22:48;;;;;;;22.45;13.65;;;7.40;96.30;;;;;;5110691;28;20028;-77
2022/03/20 09:25:14;;;;;;;20.42;13.57;;;7.40;95.40;;;;;;5110609;28;20027;-77
2022/03/20 09:27:40;;;;;;;25.73;14.93;;;7.40;95.60;;;;;;5110929;28;20118;-77
2022/03/20 09:30:06;;;;;;;27.73;14.85;;;7.30;95.50;;;;;;5110184;28;20076;-78
2022/03/20 09:32:32;;;;;;;23.60;14.00;;;7.40;95.80;;;;;;5111085;28;20055;-76
2022/03/20 09:34:57;;;;;;;27.83;14.85;;;7.50;95.80;;;;;;5110493;28;20073;-77
2022/03/20 09:37:23;;;;;;;23.60;14.32;;;7.60;95.30;;;;;;5110118;28;20438;-80
2022/03/20 09:39:48;;;;;;;21.67;14.15;;;7.70;95.40;;;;;;5110773;28;20023;-77
2022/03/20 09:42:14;;;;;;;25.17;14.80;;;7.60;96.00;;;;;;5110191;28;20494;-76
2022/03/20 09:44:40;;;;;;;26.10;13.88;;;7.60;96.60;;;;;;5110129;28;20059;-76
2022/03/20 09:47:18;;;;;;;24.98;14.70;;;7.50;95.70;;;;;;5110680;28;20031;-77
2022/03/20 09:49:48;;;;;;;24.77;15.00;;;7.50;96.00;;;;;;5110905;28;20047;-77
2022/03/20 09:52:15;;;;;;;22.92;15.20;;;7.40;96.10;;;;;;5109596;28;20422;-76
2022/03/20 09:54:40;;;;;;;26.05;15.95;;;7.40;96.40;;;;;;5111244;28;20031;-77
2022/03/20 09:57:09;;;;;;;24.70;14.77;;;7.40;96.00;;;;;;5110882;28;20165;-76
2022/03/20 09:59:36;;;;;;;22.65;14.98;;;7.40;97.60;;;;;;5109762;28;20027;-75
2022/03/20 10:02:10;;;;;;;27.25;16.30;;;7.40;96.50;;;;;;5110700;28;20035;-76
2022/03/20 10:04:56;;;;;;;30.70;15.95;;;7.40;96.00;;;;;;5106722;28;20020;-77
2022/03/20 10:07:39;;;;;;;25.92;16.63;;;7.50;94.90;;;;;;5102954;28;20116;-77
2022/03/20 10:10:32;;;;;;;35.00;16.95;;;7.50;95.90;;;;;;5109953;28;20035;-77
2022/03/20 10:13:00;;;;;;;21.52;15.55;;;7.70;95.80;;;;;;5109685;28;20092;-77
2022/03/20 10:15:32;;;;;;;32.22;16.45;;;7.90;96.20;;;;;;5110104;28;20074;-77
2022/03/20 10:18:18;;;;;;;25.38;17.25;;;8.10;96.60;;;;;;5110042;28;20119;-77
2022/03/20 10:20:50;;;;;;;27.73;17.38;;;8.20;96.00;;;;;;5110366;28;20058;-77
2022/03/20 10:23:34;;;;;;;29.88;17.92;;;8.30;95.70;;;;;;5110411;28;20031;-78
2022/03/20 10:26:04;;;;;;;28.95;17.35;;;8.40;95.50;;;;;;5106441;28;20038;-77
2022/03/20 10:28:48;;;;;;;29.10;17.40;;;8.40;95.40;;;;;;5110575;28;20039;-77
2022/03/20 10:31:17;;;;;;;26.88;16.88;;;8.50;95.60;;;;;;5110455;28;20051;-78
2022/03/20 10:33:46;;;;;;;30.40;18.02;;;8.60;94.60;;;;;;5109619;28;20363;-78
2022/03/20 10:36:16;;;;;;;32.47;18.52;;;8.60;95.00;;;;;;5110463;28;20036;-78
2022/03/20 10:38:44;;;;;;;27.75;18.15;;;8.70;94.20;;;;;;5110552;28;20163;-77
2022/03/20 10:41:21;;;;;;;29.73;18.48;;;8.80;94.10;;;;;;5109868;28;20133;-78
2022/03/20 10:43:48;;;;;;;28.75;18.90;;;8.80;94.40;;;;;;5103938;28;20067;-76
2022/03/20 10:46:22;;;;;;;25.00;16.30;;;8.80;93.60;;;;;;5110528;28;20023;-76
2022/03/20 10:48:59;;;;;;;24.63;15.38;;;8.80;93.20;;;;;;5110070;28;20028;-77
2022/03/20 10:51:39;;;;;;;28.52;16.33;;;8.70;93.10;;;;;;5110291;28;20399;-78
2022/03/20 10:54:09;;;;;;;24.77;16.70;;;8.60;92.50;;;;;;5098512;28;20039;-77
2022/03/20 10:56:36;;;;;;;23.70;14.73;;;8.60;92.30;;;;;;5103227;28;20042;-76
2022/03/20 10:59:17;;;;;;;30.25;16.08;;;8.60;92.40;;;;;;5109622;28;20028;-78
2022/03/20 11:01:44;;;;;;;;;;;8.50;92.60;;;;;;5104011;28;20031;-78
2022/03/20 11:04:14;;;;;;;24.77;16.30;;;8.40;92.20;;;;;;5112141;28;20382;-78
2022/03/20 11:06:50;;;;;;;28.88;16.17;;;8.40;92.50;;;;;;5113734;28;20046;-77
2022/03/20 11:09:16;;;;;;;29.13;17.45;;;8.30;92.90;;;;;;5109267;28;20031;-76
2022/03/20 11:11:45;;;;;;;28.17;16.75;;;8.30;92.90;;;;;;5111984;28;20046;-77
2022/03/20 11:14:18;;;;;;;26.58;16.75;;;8.20;93.40;;;;;;5112141;28;20088;-76
2022/03/20 11:16:47;;;;;;;25.27;16.75;;;8.20;93.20;;;;;;5112657;28;20032;-77
2022/03/20 11:19:15;;;;;;;26.88;17.27;;;8.20;94.00;;;;;;5113515;28;20034;-78
2022/03/20 11:21:47;;;;;;;28.08;17.67;;;8.10;94.70;;;;;;5113584;28;20024;-77
2022/03/20 11:24:15;;;;;;;32.50;19.75;;;8.00;95.80;;;;;;5112773;28;20028;-78
2022/03/20 11:26:43;;;;;;;30.45;18.88;;;8.10;97.20;;;;;;5113220;28;20059;-77
2022/03/20 11:29:12;;;;;;;30.70;19.45;;;8.20;97.50;;;;;;5112829;28;20055;-77
2022/03/20 11:31:39;;;;;;;28.55;18.60;;;8.20;97.90;;;;;;5113670;28;20110;-77
2022/03/20 11:34:09;;;;;;;38.97;20.25;;;8.40;99.10;;;;;;5113205;28;20145;-77
2022/03/20 11:37:09;;;;;;;27.40;19.70;;;8.50;98.90;;;;;;5112782;28;20483;-77
2022/03/20 11:39:59;;;;;;;33.72;20.67;;;8.80;99.90;;;;;;5107654;28;20039;-77
2022/03/20 11:42:26;;;;;;;30.25;19.75;;;8.90;99.30;;;;;;5102331;28;20028;-77
2022/03/20 11:45:07;;;;;;;31.13;19.67;;;9.00;99.90;;;;;;5112489;28;20027;-77
2022/03/20 11:47:35;;;;;;;32.92;20.00;;;9.10;99.50;;;;;;5112942;28;20088;-77
2022/03/20 11:50:25;;;;;;;34.33;21.35;;;9.00;99.90;;;;;;5113305;28;20027;-76
2022/03/20 11:53:00;;;;;;;39.25;20.85;;;9.00;99.90;;;;;;5112777;28;20040;-76
2022/03/20 11:55:30;;;;;;;35.20;21.45;;;9.00;99.60;;;;;;5099729;28;20047;-77
2022/03/20 11:57:57;;;;;;;35.03;21.73;;;9.00;99.60;;;;;;5112493;28;20092;-78
2022/03/20 12:00:34;;;;;;;35.00;21.75;;;9.00;99.40;;;;;;5112660;28;20050;-76
2022/03/20 12:03:03;;;;;;;30.60;20.30;;;9.00;99.30;;;;;;5112932;28;20413;-74
2022/03/20 12:06:07;;;;;;;31.88;21.17;;;9.10;99.10;;;;;;5111939;28;20022;-77
2022/03/20 12:09:01;;;;;;;34.92;21.40;;;9.10;99.20;;;;;;5112274;28;20068;-76
2022/03/20 12:11:48;;;;;;;32.92;20.95;;;9.30;99.70;;;;;;5104541;28;20209;-75
2022/03/20 12:14:56;;;;;;;35.47;21.52;;;9.50;99.50;;;;;;5101094;28;20039;-77
2022/03/20 12:17:22;;;;;;;32.15;21.88;;;9.50;98.90;;;;;;5108447;28;20028;-77
2022/03/20 12:19:49;;;;;;;36.72;21.50;;;9.50;98.50;;;;;;5111801;28;20032;-76
2022/03/20 12:22:28;;;;;;;40.97;21.95;;;9.50;99.00;;;;;;5099961;28;20103;-77
2022/03/20 12:25:03;;;;;;;33.15;21.77;;;9.50;98.60;;;;;;5097560;28;20035;-76
2022/03/20 12:27:32;;;;;;;35.65;23.35;;;9.70;99.00;;;;;;5106802;28;20036;-76
2022/03/20 12:30:13;;;;;;;37.78;22.77;;;9.80;98.40;;;;;;5111808;28;20023;-77
2022/03/20 12:32:48;;;;;;;36.72;22.92;;;10.00;98.40;;;;;;5108498;28;20122;-76
2022/03/20 12:35:16;;;;;;;39.33;23.73;;;10.00;98.00;;;;;;5110802;28;20361;-77
2022/03/20 12:37:44;;;;;;;46.78;24.88;;;10.00;97.80;;;;;;5109577;28;20545;-76
2022/03/20 12:40:27;;;;;;;38.55;24.00;;;10.10;97.70;;;;;;5093491;28;20452;-77
2022/03/20 12:42:56;;;;;;;38.15;22.88;;;10.20;97.90;;;;;;5102403;28;20368;-78
2022/03/20 12:45:23;;;;;;;35.75;23.25;;;10.30;97.70;;;;;;5094103;28;20032;-77
2022/03/20 12:48:15;;;;;;;34.83;24.40;;;10.30;97.10;;;;;;5084493;28;20040;-76
2022/03/20 12:50:44;;;;;;;36.47;22.15;;;10.20;97.60;;;;;;5108605;28;20111;-76
2022/03/20 12:53:16;;;;;;;34.55;23.63;;;10.20;98.30;;;;;;5111832;28;20043;-77
2022/03/20 12:56:03;;;;;;;38.00;23.90;;;10.30;97.60;;;;;;5110763;28;20036;-76
2022/03/20 12:58:30;;;;;;;33.33;22.05;;;10.40;97.20;;;;;;5090905;28;20115;-76
2022/03/20 13:00:57;;;;;;;39.58;24.27;;;10.50;97.00;;;;;;5085079;28;20035;-77
2022/03/20 13:03:25;;;;;;;34.95;25.05;;;10.50;96.60;;;;;;5081920;28;20063;-76
2022/03/20 13:05:52;;;;;;;38.25;24.15;;;10.60;96.40;;;;;;5086067;28;20016;-75
2022/03/20 13:08:23;;;;;;;36.67;24.50;;;10.80;96.50;;;;;;5085450;28;20098;-77
2022/03/20 13:10:51;;;;;;;40.75;24.15;;;11.10;96.20;;;;;;5087227;28;20021;-76
2022/03/20 13:13:20;;;;;;;46.72;25.73;;;11.20;95.90;;;;;;5086865;28;20361;-76
2022/03/20 13:15:46;;;;;;;40.80;25.55;;;11.30;95.40;;;;;;5084142;28;20036;-76
2022/03/20 13:18:12;;;;;;;38.83;25.27;;;11.30;94.90;;;;;;5085891;28;20558;-77